createdAt,value
2018-01-04T00:00:45.776Z,985.08
2018-01-04T00:01:45.757Z,984.96
2018-01-04T00:02:45.728Z,985.06
2018-01-04T00:03:45.856Z,985.05
2018-01-04T00:04:45.683Z,985.12
2018-01-04T00:05:45.657Z,985.09
2018-01-04T00:06:45.632Z,985.12
2018-01-04T00:07:45.608Z,985.18
2018-01-04T00:08:45.584Z,985.10
2018-01-04T00:09:45.565Z,985.17
2018-01-04T00:10:45.536Z,985.19
2018-01-04T00:11:45.513Z,985.23
2018-01-04T00:12:45.487Z,985.27
2018-01-04T00:13:45.463Z,985.23
2018-01-04T00:14:45.440Z,985.35
2018-01-04T00:15:45.417Z,985.24
2018-01-04T00:16:45.392Z,985.32
2018-01-04T00:17:45.367Z,985.32
2018-01-04T00:18:45.346Z,985.35
2018-01-04T00:19:45.321Z,985.37
2018-01-04T00:20:45.295Z,985.37
2018-01-04T00:21:45.272Z,985.37
2018-01-04T00:22:45.248Z,985.35
2018-01-04T00:23:45.474Z,985.42
2018-01-04T00:24:45.199Z,985.40
2018-01-04T00:25:45.175Z,985.40
2018-01-04T00:26:45.152Z,985.45
2018-01-04T00:27:45.133Z,985.45
2018-01-04T00:28:45.102Z,985.56
2018-01-04T00:29:45.079Z,985.51
2018-01-04T00:30:45.304Z,985.53
2018-01-04T00:31:45.032Z,985.59
2018-01-04T00:32:45.006Z,985.62
2018-01-04T00:33:44.983Z,985.69
2018-01-04T00:34:44.957Z,985.65
2018-01-04T00:35:44.936Z,985.61
2018-01-04T00:36:44.912Z,985.70
2018-01-04T00:37:44.886Z,985.76
2018-01-04T00:38:44.863Z,985.77
2018-01-04T00:39:44.838Z,985.74
2018-01-04T00:40:44.813Z,985.81
2018-01-04T00:41:44.789Z,985.89
2018-01-04T00:42:44.765Z,985.78
2018-01-04T00:43:44.742Z,985.84
2018-01-04T00:44:44.717Z,985.90
2018-01-04T00:45:44.694Z,985.84
2018-01-04T00:46:44.669Z,985.95
2018-01-04T00:47:44.647Z,985.92
2018-01-04T00:48:44.872Z,986.02
2018-01-04T00:49:44.596Z,985.93
2018-01-04T00:50:44.574Z,985.97
2018-01-04T00:51:44.553Z,985.69
2018-01-04T00:52:44.524Z,985.95
2018-01-04T00:53:44.600Z,986.03
2018-01-04T00:54:44.476Z,986.04
2018-01-04T00:55:44.452Z,986.04
2018-01-04T00:56:44.426Z,986.06
2018-01-04T00:57:44.402Z,986.00
2018-01-04T00:58:44.628Z,986.08
2018-01-04T00:59:44.353Z,986.16
2018-01-04T01:00:44.328Z,986.19
2018-01-04T01:01:44.304Z,986.11
2018-01-04T01:02:44.280Z,986.24
2018-01-04T01:03:44.255Z,986.08
2018-01-04T01:04:44.235Z,986.11
2018-01-04T01:05:44.204Z,986.18
2018-01-04T01:06:44.180Z,986.20
2018-01-04T01:07:44.158Z,986.14
2018-01-04T01:08:44.131Z,986.25
2018-01-04T01:09:44.106Z,986.18
2018-01-04T01:10:44.082Z,986.22
2018-01-04T01:11:44.206Z,986.22
2018-01-04T01:12:44.032Z,986.25
2018-01-04T01:13:44.007Z,986.26
2018-01-04T01:14:43.983Z,986.36
2018-01-04T01:15:43.958Z,986.45
2018-01-04T01:16:43.932Z,986.32
2018-01-04T01:17:43.911Z,986.39
2018-01-04T01:18:43.883Z,986.28
2018-01-04T01:19:43.858Z,986.46
2018-01-04T01:20:43.834Z,986.38
2018-01-04T01:21:43.908Z,986.45
2018-01-04T01:22:43.784Z,986.43
2018-01-04T01:23:43.759Z,986.44
2018-01-04T01:24:43.733Z,986.41
2018-01-04T01:25:43.709Z,986.43
2018-01-04T01:26:43.936Z,986.41
2018-01-04T01:27:43.661Z,986.47
2018-01-04T01:28:43.636Z,986.41
2018-01-04T01:29:43.611Z,986.46
2018-01-04T01:30:43.590Z,986.54
2018-01-04T01:31:43.562Z,986.61
2018-01-04T01:32:43.536Z,986.59
2018-01-04T01:33:43.511Z,986.71
2018-01-04T01:34:43.487Z,986.75
2018-01-04T01:35:43.463Z,986.69
2018-01-04T01:36:43.537Z,986.69
2018-01-04T01:37:43.414Z,986.76
2018-01-04T01:38:43.389Z,986.75
2018-01-04T01:39:43.364Z,986.79
2018-01-04T01:40:43.337Z,986.87
2018-01-04T01:41:43.463Z,986.82
2018-01-04T01:42:43.291Z,986.94
2018-01-04T01:43:43.268Z,986.75
2018-01-04T01:44:43.242Z,986.90
2018-01-04T01:45:43.216Z,986.87
2018-01-04T01:46:43.342Z,986.87
2018-01-04T01:47:43.166Z,986.97
2018-01-04T01:48:43.141Z,986.80
2018-01-04T01:49:43.117Z,986.86
2018-01-04T01:50:43.092Z,986.89
2018-01-04T01:51:43.072Z,986.83
2018-01-04T01:52:43.042Z,986.93
2018-01-04T01:53:43.017Z,986.89
2018-01-04T01:54:42.994Z,986.88
2018-01-04T01:55:42.969Z,986.90
2018-01-04T01:56:42.944Z,986.94
2018-01-04T01:57:42.920Z,986.99
2018-01-04T01:58:42.895Z,987.00
2018-01-04T01:59:42.870Z,986.87
2018-01-04T02:00:42.845Z,987.04
2018-01-04T02:01:42.971Z,986.98
2018-01-04T02:02:42.795Z,986.91
2018-01-04T02:03:42.771Z,987.00
2018-01-04T02:04:42.745Z,986.98
2018-01-04T02:05:42.721Z,987.00
2018-01-04T02:06:42.697Z,986.96
2018-01-04T02:07:42.673Z,986.96
2018-01-04T02:08:42.647Z,986.97
2018-01-04T02:09:42.622Z,986.98
2018-01-04T02:10:42.597Z,987.00
2018-01-04T02:11:42.573Z,987.03
2018-01-04T02:12:42.549Z,987.05
2018-01-04T02:13:42.523Z,987.07
2018-01-04T02:14:42.500Z,987.13
2018-01-04T02:15:42.474Z,987.12
2018-01-04T02:16:42.453Z,987.23
2018-01-04T02:17:42.425Z,987.19
2018-01-04T02:18:42.400Z,987.22
2018-01-04T02:19:42.377Z,987.18
2018-01-04T02:20:42.351Z,987.24
2018-01-04T02:21:42.326Z,987.24
2018-01-04T02:22:42.302Z,987.30
2018-01-04T02:23:42.277Z,987.36
2018-01-04T02:24:42.501Z,987.34
2018-01-04T02:25:42.228Z,987.35
2018-01-04T02:26:42.204Z,987.32
2018-01-04T02:27:42.178Z,987.26
2018-01-04T02:28:42.154Z,987.26
2018-01-04T02:29:42.229Z,987.31
2018-01-04T02:30:42.104Z,987.36
2018-01-04T02:31:42.080Z,987.35
2018-01-04T02:32:42.058Z,987.36
2018-01-04T02:33:42.032Z,987.36
2018-01-04T02:34:42.006Z,987.49
2018-01-04T02:35:41.982Z,987.44
2018-01-04T02:36:41.957Z,987.42
2018-01-04T02:37:41.933Z,987.44
2018-01-04T02:38:41.907Z,987.46
2018-01-04T02:39:42.034Z,987.43
2018-01-04T02:40:41.858Z,987.47
2018-01-04T02:41:41.833Z,987.41
2018-01-04T02:42:41.810Z,987.50
2018-01-04T02:43:41.785Z,987.50
2018-01-04T02:44:41.766Z,987.58
2018-01-04T02:45:41.736Z,987.48
2018-01-04T02:46:41.711Z,987.53
2018-01-04T02:47:41.686Z,987.55
2018-01-04T02:48:41.660Z,987.50
2018-01-04T02:49:42.437Z,987.56
2018-01-04T02:50:41.612Z,987.45
2018-01-04T02:51:41.587Z,987.47
2018-01-04T02:52:41.562Z,987.54
2018-01-04T02:53:41.540Z,987.59
2018-01-04T02:54:41.512Z,987.60
2018-01-04T02:55:41.489Z,987.62
2018-01-04T02:56:41.463Z,987.60
2018-01-04T02:57:41.438Z,987.63
2018-01-04T02:58:41.414Z,987.66
2018-01-04T02:59:41.389Z,987.64
2018-01-04T03:00:41.366Z,987.67
2018-01-04T03:01:41.339Z,987.72
2018-01-04T03:02:41.314Z,987.68
2018-01-04T03:03:41.290Z,987.70
2018-01-04T03:04:41.264Z,987.70
2018-01-04T03:05:41.240Z,987.69
2018-01-04T03:06:41.216Z,987.73
2018-01-04T03:07:41.442Z,987.75
2018-01-04T03:08:41.166Z,987.73
2018-01-04T03:09:41.142Z,987.79
2018-01-04T03:10:41.117Z,987.78
2018-01-04T03:11:41.093Z,987.81
2018-01-04T03:12:41.067Z,987.74
2018-01-04T03:13:41.042Z,987.75
2018-01-04T03:14:41.019Z,987.70
2018-01-04T03:15:40.997Z,987.78
2018-01-04T03:16:40.968Z,987.82
2018-01-04T03:17:40.944Z,987.79
2018-01-04T03:18:41.171Z,987.72
2018-01-04T03:19:40.896Z,987.79
2018-01-04T03:20:40.870Z,987.82
2018-01-04T03:21:40.845Z,987.78
2018-01-04T03:22:40.822Z,987.80
2018-01-04T03:23:41.047Z,987.82
2018-01-04T03:24:40.772Z,987.84
2018-01-04T03:25:40.748Z,987.88
2018-01-04T03:26:40.722Z,987.85
2018-01-04T03:27:40.697Z,987.89
2018-01-04T03:28:40.672Z,987.95
2018-01-04T03:29:40.648Z,987.98
2018-01-04T03:30:40.624Z,987.96
2018-01-04T03:31:40.599Z,987.92
2018-01-04T03:32:40.575Z,987.94
2018-01-04T03:33:40.551Z,987.99
2018-01-04T03:34:40.525Z,987.96
2018-01-04T03:35:40.502Z,988.03
2018-01-04T03:36:40.477Z,988.03
2018-01-04T03:37:40.453Z,988.02
2018-01-04T03:38:40.428Z,988.01
2018-01-04T03:39:40.403Z,987.99
2018-01-04T03:40:40.378Z,987.94
2018-01-04T03:41:40.355Z,988.03
2018-01-04T03:42:40.329Z,987.99
2018-01-04T03:43:40.405Z,987.97
2018-01-04T03:44:40.281Z,988.00
2018-01-04T03:45:40.257Z,987.99
2018-01-04T03:46:40.233Z,987.95
2018-01-04T03:47:40.207Z,987.95
2018-01-04T03:48:40.183Z,987.96
2018-01-04T03:49:40.159Z,987.92
2018-01-04T03:50:40.134Z,988.04
2018-01-04T03:51:40.111Z,988.05
2018-01-04T03:52:40.086Z,988.01
2018-01-04T03:53:40.062Z,988.06
2018-01-04T03:54:40.288Z,988.03
2018-01-04T03:55:40.015Z,988.05
2018-01-04T03:56:39.989Z,988.01
2018-01-04T03:57:39.964Z,988.07
2018-01-04T03:58:39.946Z,988.03
2018-01-04T03:59:39.916Z,988.03
2018-01-04T04:00:39.891Z,988.03
2018-01-04T04:01:39.866Z,988.05
2018-01-04T04:02:39.846Z,988.08
2018-01-04T04:03:39.820Z,988.12
2018-01-04T04:04:39.793Z,988.14
2018-01-04T04:05:39.773Z,988.14
2018-01-04T04:06:39.746Z,988.15
2018-01-04T04:07:39.722Z,988.18
2018-01-04T04:08:39.697Z,988.17
2018-01-04T04:09:39.673Z,988.19
2018-01-04T04:10:39.649Z,988.22
2018-01-04T04:11:39.625Z,988.20
2018-01-04T04:12:39.600Z,988.19
2018-01-04T04:13:39.575Z,988.29
2018-01-04T04:14:39.552Z,988.26
2018-01-04T04:15:39.527Z,988.27
2018-01-04T04:16:39.503Z,988.36
2018-01-04T04:17:39.479Z,988.30
2018-01-04T04:18:39.454Z,988.34
2018-01-04T04:19:39.430Z,988.45
2018-01-04T04:20:39.407Z,988.44
2018-01-04T04:21:39.382Z,988.48
2018-01-04T04:22:39.358Z,988.55
2018-01-04T04:23:39.334Z,988.45
2018-01-04T04:24:39.308Z,988.46
2018-01-04T04:25:39.284Z,988.49
2018-01-04T04:26:39.261Z,988.47
2018-01-04T04:27:39.235Z,988.43
2018-01-04T04:28:39.211Z,988.45
2018-01-04T04:29:39.187Z,988.50
2018-01-04T04:30:39.163Z,988.52
2018-01-04T04:31:39.137Z,988.47
2018-01-04T04:32:39.113Z,988.52
2018-01-04T04:33:39.088Z,988.58
2018-01-04T04:34:39.215Z,988.61
2018-01-04T04:35:39.040Z,988.59
2018-01-04T04:36:39.016Z,988.58
2018-01-04T04:37:38.991Z,988.63
2018-01-04T04:38:38.967Z,988.59
2018-01-04T04:39:38.942Z,988.63
2018-01-04T04:40:39.167Z,988.61
2018-01-04T04:41:38.894Z,988.62
2018-01-04T04:42:38.869Z,988.64
2018-01-04T04:43:38.845Z,988.68
2018-01-04T04:44:38.820Z,988.68
2018-01-04T04:45:39.047Z,988.68
2018-01-04T04:46:38.772Z,988.70
2018-01-04T04:47:38.749Z,988.71
2018-01-04T04:48:38.723Z,988.71
2018-01-04T04:49:38.700Z,988.74
2018-01-04T04:50:38.676Z,988.81
2018-01-04T04:51:38.652Z,988.81
2018-01-04T04:52:38.627Z,988.74
2018-01-04T04:53:38.601Z,988.76
2018-01-04T04:54:38.577Z,988.66
2018-01-04T04:55:38.553Z,988.78
2018-01-04T04:56:38.529Z,988.79
2018-01-04T04:57:38.505Z,988.79
2018-01-04T04:58:38.481Z,988.84
2018-01-04T04:59:38.458Z,988.86
2018-01-04T05:00:38.432Z,988.88
2018-01-04T05:01:38.407Z,988.90
2018-01-04T05:02:38.383Z,988.88
2018-01-04T05:03:38.360Z,988.94
2018-01-04T05:04:38.335Z,988.90
2018-01-04T05:05:38.309Z,989.01
2018-01-04T05:06:38.284Z,989.03
2018-01-04T05:07:38.262Z,988.98
2018-01-04T05:08:38.235Z,988.99
2018-01-04T05:09:38.212Z,988.98
2018-01-04T05:10:38.187Z,988.97
2018-01-04T05:11:38.162Z,989.00
2018-01-04T05:12:38.136Z,989.06
2018-01-04T05:13:38.113Z,989.05
2018-01-04T05:14:38.088Z,989.04
2018-01-04T05:15:38.064Z,988.99
2018-01-04T05:16:38.039Z,988.98
2018-01-04T05:17:38.016Z,989.06
2018-01-04T05:18:37.991Z,988.94
2018-01-04T05:19:37.966Z,988.98
2018-01-04T05:20:37.942Z,988.97
2018-01-04T05:21:37.917Z,988.95
2018-01-04T05:22:37.893Z,988.99
2018-01-04T05:23:37.869Z,989.00
2018-01-04T05:24:37.844Z,989.03
2018-01-04T05:25:37.819Z,988.97
2018-01-04T05:26:37.794Z,988.99
2018-01-04T05:27:37.776Z,988.96
2018-01-04T05:28:37.746Z,988.88
2018-01-04T05:29:37.721Z,988.92
2018-01-04T05:30:37.698Z,988.88
2018-01-04T05:31:37.674Z,988.85
2018-01-04T05:32:37.647Z,988.89
2018-01-04T05:33:37.623Z,988.87
2018-01-04T05:34:37.600Z,988.89
2018-01-04T05:35:37.575Z,988.86
2018-01-04T05:36:37.549Z,988.95
2018-01-04T05:37:37.525Z,988.91
2018-01-04T05:38:37.501Z,988.91
2018-01-04T05:39:37.478Z,988.92
2018-01-04T05:40:37.453Z,988.94
2018-01-04T05:41:37.428Z,988.98
2018-01-04T05:42:37.405Z,989.02
2018-01-04T05:43:37.381Z,989.01
2018-01-04T05:44:37.355Z,989.03
2018-01-04T05:45:37.331Z,989.01
2018-01-04T05:46:37.307Z,989.08
2018-01-04T05:47:37.282Z,989.02
2018-01-04T05:48:37.257Z,989.03
2018-01-04T05:49:37.235Z,989.05
2018-01-04T05:50:37.211Z,989.03
2018-01-04T05:51:37.186Z,989.07
2018-01-04T05:52:37.161Z,989.08
2018-01-04T05:53:37.135Z,989.09
2018-01-04T05:54:37.112Z,989.05
2018-01-04T05:55:37.088Z,989.12
2018-01-04T05:56:37.062Z,989.13
2018-01-04T05:57:37.042Z,989.13
2018-01-04T05:58:37.014Z,989.14
2018-01-04T05:59:36.992Z,989.13
2018-01-04T06:00:36.966Z,989.16
2018-01-04T06:01:37.743Z,989.21
2018-01-04T06:02:36.919Z,989.25
2018-01-04T06:03:36.894Z,989.20
2018-01-04T06:04:36.868Z,989.27
2018-01-04T06:05:36.845Z,989.22
2018-01-04T06:06:36.972Z,989.22
2018-01-04T06:07:36.797Z,989.20
2018-01-04T06:08:36.773Z,989.20
2018-01-04T06:09:36.747Z,989.21
2018-01-04T06:10:36.725Z,989.19
2018-01-04T06:11:36.700Z,989.22
2018-01-04T06:12:36.674Z,989.25
2018-01-04T06:13:36.652Z,989.23
2018-01-04T06:14:36.627Z,989.23
2018-01-04T06:15:36.604Z,989.28
2018-01-04T06:16:36.579Z,989.26
2018-01-04T06:17:36.556Z,989.28
2018-01-04T06:18:36.531Z,989.27
2018-01-04T06:19:36.506Z,989.29
2018-01-04T06:20:36.482Z,989.32
2018-01-04T06:21:36.457Z,989.24
2018-01-04T06:22:36.434Z,989.35
2018-01-04T06:23:36.410Z,989.24
2018-01-04T06:24:36.386Z,989.33
2018-01-04T06:25:36.362Z,989.34
2018-01-04T06:26:36.343Z,989.31
2018-01-04T06:27:36.314Z,989.35
2018-01-04T06:28:36.389Z,989.32
2018-01-04T06:29:36.266Z,989.33
2018-01-04T06:30:36.241Z,989.30
2018-01-04T06:31:36.217Z,989.33
2018-01-04T06:32:36.192Z,989.29
2018-01-04T06:33:36.168Z,989.31
2018-01-04T06:34:36.146Z,989.30
2018-01-04T06:35:36.127Z,989.30
2018-01-04T06:36:36.102Z,989.31
2018-01-04T06:37:36.072Z,989.31
2018-01-04T06:38:36.047Z,989.32
2018-01-04T06:39:36.028Z,989.32
2018-01-04T06:40:36.001Z,989.37
2018-01-04T06:41:35.975Z,989.33
2018-01-04T06:42:35.952Z,989.31
2018-01-04T06:43:35.929Z,989.31
2018-01-04T06:44:35.904Z,989.41
2018-01-04T06:45:35.878Z,989.41
2018-01-04T06:46:35.855Z,989.42
2018-01-04T06:47:35.831Z,989.41
2018-01-04T06:48:35.807Z,989.46
2018-01-04T06:49:35.783Z,989.46
2018-01-04T06:50:35.758Z,989.45
2018-01-04T06:51:35.735Z,989.48
2018-01-04T06:52:35.709Z,989.45
2018-01-04T06:53:35.685Z,989.43
2018-01-04T06:54:35.662Z,989.40
2018-01-04T06:55:35.639Z,989.42
2018-01-04T06:56:36.414Z,989.41
2018-01-04T06:57:35.590Z,989.33
2018-01-04T06:58:35.566Z,989.34
2018-01-04T06:59:35.542Z,989.39
2018-01-04T07:00:35.517Z,989.43
2018-01-04T07:01:35.493Z,989.47
2018-01-04T07:02:35.468Z,989.49
2018-01-04T07:03:35.446Z,989.53
2018-01-04T07:04:35.421Z,989.54
2018-01-04T07:05:35.397Z,989.57
2018-01-04T07:06:35.373Z,989.53
2018-01-04T07:07:35.364Z,989.56
2018-01-04T07:08:35.575Z,989.50
2018-01-04T07:09:35.300Z,989.51
2018-01-04T07:10:35.277Z,989.52
2018-01-04T07:11:35.254Z,989.51
2018-01-04T07:12:35.228Z,989.53
2018-01-04T07:13:35.305Z,989.61
2018-01-04T07:14:35.180Z,989.59
2018-01-04T07:15:35.157Z,989.63
2018-01-04T07:16:35.133Z,989.65
2018-01-04T07:17:35.108Z,989.68
2018-01-04T07:18:35.086Z,989.69
2018-01-04T07:19:35.061Z,989.65
2018-01-04T07:20:35.036Z,989.66
2018-01-04T07:21:35.013Z,989.72
2018-01-04T07:22:34.988Z,989.74
2018-01-04T07:23:35.866Z,989.73
2018-01-04T07:24:34.940Z,989.81
2018-01-04T07:25:34.917Z,989.79
2018-01-04T07:26:34.892Z,989.76
2018-01-04T07:27:34.871Z,989.73
2018-01-04T07:28:34.843Z,989.77
2018-01-04T07:29:34.819Z,989.75
2018-01-04T07:30:34.797Z,989.81
2018-01-04T07:31:34.773Z,989.89
2018-01-04T07:32:34.748Z,989.91
2018-01-04T07:33:34.724Z,989.88
2018-01-04T07:34:34.700Z,989.85
2018-01-04T07:35:34.676Z,989.80
2018-01-04T07:36:34.901Z,989.81
2018-01-04T07:37:34.628Z,989.82
2018-01-04T07:38:34.605Z,989.84
2018-01-04T07:39:34.580Z,989.84
2018-01-04T07:40:34.556Z,989.86
2018-01-04T07:41:34.531Z,989.88
2018-01-04T07:42:34.507Z,989.89
2018-01-04T07:43:34.483Z,989.91
2018-01-04T07:44:34.460Z,989.87
2018-01-04T07:45:34.436Z,989.91
2018-01-04T07:46:34.411Z,989.89
2018-01-04T07:47:34.389Z,989.83
2018-01-04T07:48:34.513Z,989.84
2018-01-04T07:49:34.345Z,989.80
2018-01-04T07:50:34.316Z,989.87
2018-01-04T07:51:34.291Z,989.86
2018-01-04T07:52:34.267Z,989.88
2018-01-04T07:53:34.248Z,989.85
2018-01-04T07:54:34.220Z,989.85
2018-01-04T07:55:34.196Z,989.91
2018-01-04T07:56:34.171Z,989.90
2018-01-04T07:57:34.147Z,989.95
2018-01-04T07:58:34.124Z,989.99
2018-01-04T07:59:34.101Z,989.93
2018-01-04T08:00:34.075Z,989.97
2018-01-04T08:01:34.051Z,989.95
2018-01-04T08:02:34.029Z,990.02
2018-01-04T08:03:34.006Z,989.98
2018-01-04T08:04:33.979Z,989.95
2018-01-04T08:05:33.958Z,989.97
2018-01-04T08:06:33.933Z,990.02
2018-01-04T08:07:33.908Z,990.01
2018-01-04T08:08:34.134Z,990.04
2018-01-04T08:09:33.860Z,990.02
2018-01-04T08:10:33.836Z,990.01
2018-01-04T08:11:33.814Z,990.03
2018-01-04T08:12:33.788Z,990.06
2018-01-04T08:13:34.015Z,990.05
2018-01-04T08:14:33.742Z,990.04
2018-01-04T08:15:33.718Z,990.01
2018-01-04T08:16:33.694Z,990.05
2018-01-04T08:17:33.670Z,990.07
2018-01-04T08:18:33.797Z,990.09
2018-01-04T08:19:33.622Z,990.09
2018-01-04T08:20:33.600Z,990.06
2018-01-04T08:21:33.581Z,990.02
2018-01-04T08:22:33.551Z,990.04
2018-01-04T08:23:33.528Z,990.02
2018-01-04T08:24:33.504Z,990.07
2018-01-04T08:25:33.479Z,990.06
2018-01-04T08:26:33.462Z,990.04
2018-01-04T08:27:33.435Z,990.09
2018-01-04T08:28:33.408Z,990.07
2018-01-04T08:29:33.384Z,990.11
2018-01-04T08:30:33.362Z,990.07
2018-01-04T08:31:33.338Z,990.08
2018-01-04T08:32:33.314Z,990.08
2018-01-04T08:33:33.291Z,990.10
2018-01-04T08:34:33.266Z,990.12
2018-01-04T08:35:33.242Z,990.09
2018-01-04T08:36:33.219Z,990.12
2018-01-04T08:37:33.195Z,990.11
2018-01-04T08:38:33.173Z,990.12
2018-01-04T08:39:33.148Z,990.18
2018-01-04T08:40:33.124Z,990.15
2018-01-04T08:41:33.101Z,990.17
2018-01-04T08:42:33.076Z,990.22
2018-01-04T08:43:33.054Z,990.25
2018-01-04T08:44:33.030Z,990.20
2018-01-04T08:45:33.006Z,990.24
2018-01-04T08:46:32.983Z,990.25
2018-01-04T08:47:32.958Z,990.26
2018-01-04T08:48:32.937Z,990.26
2018-01-04T08:49:32.910Z,990.26
2018-01-04T08:50:32.887Z,990.30
2018-01-04T08:51:32.865Z,990.27
2018-01-04T08:52:32.840Z,990.29
2018-01-04T08:53:32.817Z,990.29
2018-01-04T08:54:32.792Z,990.29
2018-01-04T08:55:32.770Z,990.30
2018-01-04T08:56:32.746Z,990.33
2018-01-04T08:57:32.723Z,990.34
2018-01-04T08:58:32.700Z,990.37
2018-01-04T08:59:32.676Z,990.34
2018-01-04T09:00:32.800Z,990.30
2018-01-04T09:01:32.626Z,990.29
2018-01-04T09:02:32.603Z,990.34
2018-01-04T09:03:32.580Z,990.36
2018-01-04T09:04:32.557Z,990.34
2018-01-04T09:05:32.633Z,990.37
2018-01-04T09:06:32.510Z,990.31
2018-01-04T09:07:32.486Z,990.31
2018-01-04T09:08:32.461Z,990.38
2018-01-04T09:09:32.439Z,990.36
2018-01-04T09:10:32.567Z,990.34
2018-01-04T09:11:32.392Z,990.38
2018-01-04T09:12:32.367Z,990.38
2018-01-04T09:13:32.345Z,990.34
2018-01-04T09:14:32.321Z,990.32
2018-01-04T09:15:32.297Z,990.34
2018-01-04T09:16:32.275Z,990.36
2018-01-04T09:17:32.251Z,990.38
2018-01-04T09:18:32.266Z,990.31
2018-01-04T09:19:32.204Z,990.25
2018-01-04T09:20:32.179Z,990.30
2018-01-04T09:21:32.163Z,990.32
2018-01-04T09:22:32.134Z,990.33
2018-01-04T09:23:32.111Z,990.31
2018-01-04T09:24:32.085Z,990.34
2018-01-04T09:25:32.062Z,990.29
2018-01-04T09:26:32.292Z,990.30
2018-01-04T09:27:32.017Z,990.27
2018-01-04T09:28:31.993Z,990.28
2018-01-04T09:29:31.970Z,990.35
2018-01-04T09:30:31.947Z,990.34
2018-01-04T09:31:32.022Z,990.35
2018-01-04T09:32:31.898Z,990.32
2018-01-04T09:33:31.875Z,990.32
2018-01-04T09:34:31.852Z,990.32
2018-01-04T09:35:31.828Z,990.33
2018-01-04T09:36:31.804Z,990.33
2018-01-04T09:37:32.047Z,990.33
2018-01-04T09:38:31.758Z,990.32
2018-01-04T09:39:31.734Z,990.39
2018-01-04T09:40:31.711Z,990.34
2018-01-04T09:41:31.688Z,990.35
2018-01-04T09:42:31.715Z,990.33
2018-01-04T09:43:31.641Z,990.35
2018-01-04T09:44:31.616Z,990.38
2018-01-04T09:45:31.594Z,990.38
2018-01-04T09:46:31.569Z,990.41
2018-01-04T09:47:31.848Z,990.42
2018-01-04T09:48:31.522Z,990.40
2018-01-04T09:49:31.500Z,990.37
2018-01-04T09:50:31.475Z,990.42
2018-01-04T09:51:31.452Z,990.44
2018-01-04T09:52:31.429Z,990.49
2018-01-04T09:53:31.406Z,990.45
2018-01-04T09:54:31.381Z,990.48
2018-01-04T09:55:31.359Z,990.44
2018-01-04T09:56:31.338Z,990.44
2018-01-04T09:57:31.311Z,990.46
2018-01-04T09:58:31.288Z,990.42
2018-01-04T09:59:31.264Z,990.43
2018-01-04T10:00:31.241Z,990.42
2018-01-04T10:01:31.216Z,990.41
2018-01-04T10:02:31.193Z,990.45
2018-01-04T10:03:31.172Z,990.43
2018-01-04T10:04:31.145Z,990.40
2018-01-04T10:05:31.123Z,990.44
2018-01-04T10:06:31.100Z,990.40
2018-01-04T10:07:31.079Z,990.44
2018-01-04T10:08:31.052Z,990.41
2018-01-04T10:09:31.028Z,990.33
2018-01-04T10:10:31.006Z,990.43
2018-01-04T10:11:30.985Z,990.37
2018-01-04T10:12:31.057Z,990.38
2018-01-04T10:13:30.934Z,990.32
2018-01-04T10:14:30.912Z,990.41
2018-01-04T10:15:30.889Z,990.40
2018-01-04T10:16:30.870Z,990.40
2018-01-04T10:17:30.840Z,990.39
2018-01-04T10:18:30.818Z,990.36
2018-01-04T10:19:30.794Z,990.33
2018-01-04T10:20:30.770Z,990.36
2018-01-04T10:21:30.748Z,990.41
2018-01-04T10:22:30.824Z,990.36
2018-01-04T10:23:30.701Z,990.38
2018-01-04T10:24:30.678Z,990.34
2018-01-04T10:25:30.656Z,990.34
2018-01-04T10:26:30.633Z,990.34
2018-01-04T10:27:30.610Z,990.31
2018-01-04T10:28:30.586Z,990.31
2018-01-04T10:29:30.563Z,990.29
2018-01-04T10:30:30.539Z,990.29
2018-01-04T10:31:30.516Z,990.23
2018-01-04T10:32:30.492Z,990.31
2018-01-04T10:33:30.525Z,990.31
2018-01-04T10:34:30.447Z,990.25
2018-01-04T10:35:30.424Z,990.27
2018-01-04T10:36:30.399Z,990.30
2018-01-04T10:37:30.377Z,990.27
2018-01-04T10:38:30.353Z,990.29
2018-01-04T10:39:30.331Z,990.29
2018-01-04T10:40:30.307Z,990.26
2018-01-04T10:41:30.283Z,990.30
2018-01-04T10:42:30.461Z,990.31
2018-01-04T10:43:30.237Z,990.30
2018-01-04T10:44:30.214Z,990.36
2018-01-04T10:45:30.195Z,990.32
2018-01-04T10:46:30.172Z,990.35
2018-01-04T10:47:30.144Z,990.35
2018-01-04T10:48:30.120Z,990.35
2018-01-04T10:49:30.097Z,990.33
2018-01-04T10:50:30.074Z,990.36
2018-01-04T10:51:30.053Z,990.34
2018-01-04T10:52:30.029Z,990.35
2018-01-04T10:53:30.006Z,990.33
2018-01-04T10:54:29.984Z,990.30
2018-01-04T10:55:29.959Z,990.34
2018-01-04T10:56:29.934Z,990.34
2018-01-04T10:57:29.912Z,990.34
2018-01-04T10:58:29.887Z,990.32
2018-01-04T10:59:29.865Z,990.31
2018-01-04T11:00:30.143Z,990.30
2018-01-04T11:01:29.818Z,990.31
2018-01-04T11:02:29.801Z,990.30
2018-01-04T11:03:29.771Z,990.33
2018-01-04T11:04:29.749Z,990.27
2018-01-04T11:05:29.725Z,990.24
2018-01-04T11:06:29.952Z,990.26
2018-01-04T11:07:29.679Z,990.27
2018-01-04T11:08:29.656Z,990.29
2018-01-04T11:09:29.633Z,990.26
2018-01-04T11:10:29.608Z,990.25
2018-01-04T11:11:29.836Z,990.24
2018-01-04T11:12:29.561Z,990.28
2018-01-04T11:13:29.544Z,990.25
2018-01-04T11:14:29.516Z,990.27
2018-01-04T11:15:29.492Z,990.28
2018-01-04T11:16:29.468Z,990.29
2018-01-04T11:17:29.517Z,990.25
2018-01-04T11:18:29.422Z,990.21
2018-01-04T11:19:29.399Z,990.25
2018-01-04T11:20:29.376Z,990.23
2018-01-04T11:21:29.353Z,990.28
2018-01-04T11:22:29.333Z,990.26
2018-01-04T11:23:29.307Z,990.24
2018-01-04T11:24:29.288Z,990.24
2018-01-04T11:25:29.301Z,990.20
2018-01-04T11:26:29.237Z,990.18
2018-01-04T11:27:29.214Z,990.13
2018-01-04T11:28:29.189Z,990.12
2018-01-04T11:29:29.167Z,990.13
2018-01-04T11:30:29.145Z,990.16
2018-01-04T11:31:29.121Z,990.20
2018-01-04T11:32:29.096Z,990.15
2018-01-04T11:33:29.074Z,990.21
2018-01-04T11:34:29.051Z,990.17
2018-01-04T11:35:29.030Z,990.12
2018-01-04T11:36:29.005Z,990.09
2018-01-04T11:37:28.983Z,990.12
2018-01-04T11:38:28.960Z,990.14
2018-01-04T11:39:28.936Z,990.10
2018-01-04T11:40:28.914Z,990.07
2018-01-04T11:41:28.891Z,990.03
2018-01-04T11:42:28.868Z,990.05
2018-01-04T11:43:29.097Z,990.03
2018-01-04T11:44:28.822Z,990.00
2018-01-04T11:45:28.801Z,990.08
2018-01-04T11:46:28.777Z,990.01
2018-01-04T11:47:28.754Z,989.98
2018-01-04T11:48:28.831Z,990.04
2018-01-04T11:49:28.710Z,989.99
2018-01-04T11:50:28.686Z,989.99
2018-01-04T11:51:28.662Z,989.92
2018-01-04T11:52:28.642Z,990.01
2018-01-04T11:53:28.717Z,990.01
2018-01-04T11:54:28.593Z,989.97
2018-01-04T11:55:28.571Z,989.97
2018-01-04T11:56:28.548Z,989.97
2018-01-04T11:57:28.525Z,989.98
2018-01-04T11:58:28.803Z,989.99
2018-01-04T11:59:28.478Z,989.99
2018-01-04T12:00:28.456Z,989.98
2018-01-04T12:01:28.433Z,989.97
2018-01-04T12:02:28.411Z,989.94
2018-01-04T12:03:28.388Z,989.93
2018-01-04T12:04:29.415Z,990.00
2018-01-04T12:05:28.341Z,989.96
2018-01-04T12:06:28.320Z,989.95
2018-01-04T12:07:28.297Z,989.95
2018-01-04T12:08:28.287Z,989.98
2018-01-04T12:09:28.250Z,989.92
2018-01-04T12:10:28.227Z,989.96
2018-01-04T12:11:28.205Z,989.92
2018-01-04T12:12:28.183Z,989.90
2018-01-04T12:13:28.159Z,989.89
2018-01-04T12:14:28.137Z,989.90
2018-01-04T12:15:28.115Z,989.91
2018-01-04T12:16:28.342Z,989.92
2018-01-04T12:17:28.070Z,989.93
2018-01-04T12:18:28.047Z,989.88
2018-01-04T12:19:28.024Z,989.91
2018-01-04T12:20:28.001Z,989.93
2018-01-04T12:21:28.229Z,989.95
2018-01-04T12:22:27.956Z,989.88
2018-01-04T12:23:27.933Z,989.94
2018-01-04T12:24:27.908Z,989.96
2018-01-04T12:25:27.885Z,989.94
2018-01-04T12:26:27.863Z,989.91
2018-01-04T12:27:27.842Z,989.99
2018-01-04T12:28:27.818Z,989.94